Time;durP1;ratioP1;P1;durP2;ratioP2;P2;SDS_P1;SDS_P2;PMS_P1;PMS_P2;Temp;Humidity;BMP_temperature;BMP_pressure;BME280_temperature;BME280_humidity;BME280_pressure;Samples;Min_cycle;Max_cycle;Signal;HPM_P1;HPM_P2
2023/06/19 00:02:08;;;;;;;3.45;2.35;;;;;;;18.68;100.00;97532.06;1701419;75;748304;-69
2023/06/19 00:04:39;;;;;;;2.60;2.40;;;;;;;18.56;100.00;97534.31;1709711;75;675212;-71
2023/06/19 00:07:09;;;;;;;3.10;2.80;;;;;;;18.53;100.00;97527.81;1701299;75;748039;-70
2023/06/19 00:09:42;;;;;;;6.65;3.30;;;;;;;18.41;100.00;97525.78;1710098;75;678299;-70
2023/06/19 00:12:12;;;;;;;3.90;3.50;;;;;;;18.39;100.00;97520.03;1702144;75;738663;-70
2023/06/19 00:14:42;;;;;;;5.60;3.20;;;;;;;18.51;100.00;97521.31;1710838;75;671672;-68
2023/06/19 00:17:16;;;;;;;2.90;2.60;;;;;;;18.45;100.00;97524.19;1700826;75;751279;-69
2023/06/19 00:19:48;;;;;;;2.60;2.40;;;;;;;18.44;100.00;97525.47;1710554;75;670201;-69
2023/06/19 00:22:19;;;;;;;2.40;2.10;;;;;;;18.44;100.00;97524.72;1702887;75;718178;-71
2023/06/19 00:24:54;;;;;;;2.30;2.10;;;;;;;18.37;100.00;97526.09;1711352;75;676966;-69
2023/06/19 00:27:24;;;;;;;2.00;1.80;;;;;;;18.39;100.00;97528.34;1701993;75;741796;-70
2023/06/19 00:30:01;;;;;;;2.10;1.90;;;;;;;18.34;100.00;97527.16;1710251;75;678828;-69
2023/06/19 00:32:32;;;;;;;2.15;1.80;;;;;;;18.27;100.00;97536.13;1700795;75;745037;-69
2023/06/19 00:35:03;;;;;;;2.20;2.00;;;;;;;18.23;100.00;97541.97;1710136;75;671182;-68
2023/06/19 00:37:33;;;;;;;2.30;2.10;;;;;;;18.19;100.00;97536.00;1701111;75;737921;-71
2023/06/19 00:40:07;;;;;;;2.85;2.30;;;;;;;18.03;100.00;97534.25;1710213;75;680124;-69
2023/06/19 00:42:38;;;;;;;3.35;2.50;;;;;;;17.96;100.00;97524.53;1700877;75;737032;-69
2023/06/19 00:45:09;;;;;;;3.25;2.40;;;;;;;17.98;100.00;97527.53;1709756;75;672687;-72
2023/06/19 00:47:40;;;;;;;2.60;2.30;;;;;;;17.98;100.00;97529.56;1701512;75;747129;-72
2023/06/19 00:50:11;;;;;;;2.10;1.90;;;;;;;17.98;100.00;97529.56;1710106;75;674104;-68
2023/06/19 00:52:42;;;;;;;2.95;2.10;;;;;;;17.95;100.00;97531.38;1701583;75;749578;-68
2023/06/19 00:55:16;;;;;;;2.50;2.30;;;;;;;17.91;100.00;97522.63;1709441;75;678828;-70
2023/06/19 00:57:47;;;;;;;2.20;2.00;;;;;;;17.88;100.00;97518.88;1700824;75;747886;-69
2023/06/19 01:00:18;;;;;;;3.00;2.20;;;;;;;17.80;100.00;97518.03;1709827;75;671232;-72
2023/06/19 01:02:49;;;;;;;2.45;2.20;;;;;;;17.78;100.00;97520.53;1700662;75;767061;-70
2023/06/19 01:05:21;;;;;;;2.00;1.60;;;;;;;17.74;100.00;97522.88;1709947;75;678185;-69
2023/06/19 01:08:02;;;;;;;1.90;1.70;;;;;;;17.71;100.00;97512.13;1700761;75;788517;-68
2023/06/19 01:10:48;;;;;;;2.25;2.05;;;;;;;17.66;100.00;97519.22;1701330;75;674637;-69
2023/06/19 01:13:26;;;;;;;2.40;1.90;;;;;;;17.61;100.00;97526.34;1710241;75;672298;-68
2023/06/19 01:15:57;;;;;;;2.70;1.80;;;;;;;17.59;100.00;97525.38;1701279;75;752914;-70
2023/06/19 01:18:29;;;;;;;1.90;1.70;;;;;;;17.52;100.00;97531.53;1710321;75;676081;-69
2023/06/19 01:20:59;;;;;;;2.25;2.05;;;;;;;17.46;100.00;97524.06;1701466;75;747002;-69
2023/06/19 01:23:32;;;;;;;2.30;2.10;;;;;;;17.35;100.00;97521.44;1709281;75;680269;-68
2023/06/19 01:26:02;;;;;;;2.30;2.10;;;;;;;17.29;100.00;97508.97;1700736;75;747678;-70
2023/06/19 01:28:32;;;;;;;2.90;2.60;;;;;;;17.34;100.00;97508.13;1709903;75;675002;-69
2023/06/19 01:31:04;;;;;;;2.80;2.50;;;;;;;17.28;100.00;97496.41;1700472;75;753604;-69
2023/06/19 01:33:39;;;;;;;2.10;1.90;;;;;;;17.19;100.00;97498.28;1709624;75;676427;-69
2023/06/19 01:36:11;;;;;;;3.05;2.60;;;;;;;17.19;100.00;97508.59;1701401;75;740690;-70
2023/06/19 01:38:46;;;;;;;2.20;2.00;;;;;;;17.17;100.00;97505.59;1710055;75;673140;-70
2023/06/19 01:41:17;;;;;;;2.95;2.30;;;;;;;17.17;100.00;97508.38;1701309;75;737573;-71
2023/06/19 01:43:49;;;;;;;2.40;2.10;;;;;;;17.09;100.00;97499.94;1710503;75;667817;-71
2023/06/19 01:46:20;;;;;;;2.15;1.95;;;;;;;17.09;100.00;97490.91;1700983;75;753165;-70
2023/06/19 01:48:50;;;;;;;2.05;1.85;;;;;;;16.94;100.00;97503.16;1709323;75;683028;-68
2023/06/19 01:51:20;;;;;;;3.80;2.55;;;;;;;16.90;100.00;97508.22;1700841;75;749139;-70
2023/06/19 01:53:53;;;;;;;3.00;2.60;;;;;;;16.94;100.00;97503.16;1710195;75;675573;-68
2023/06/19 01:56:24;;;;;;;2.70;2.40;;;;;;;16.83;100.00;97501.25;1700075;75;765160;-68
2023/06/19 01:58:55;;;;;;;3.00;2.70;;;;;;;16.77;100.00;97503.34;1709345;75;675084;-68
2023/06/19 02:01:25;;;;;;;3.05;2.55;;;;;;;16.83;100.00;97509.56;1700997;75;750285;-69
2023/06/19 02:03:55;;;;;;;2.90;2.50;;;;;;;16.75;100.00;97503.09;1709326;75;671560;-68
2023/06/19 02:06:26;;;;;;;2.50;2.15;;;;;;;16.77;100.00;97508.13;1701375;75;751613;-69
2023/06/19 02:08:58;;;;;;;2.70;2.40;;;;;;;16.65;100.00;97492.94;1709877;75;691922;-69
2023/06/19 02:11:29;;;;;;;2.30;2.10;;;;;;;16.67;100.00;97498.69;1700852;75;743943;-69
2023/06/19 02:13:59;;;;;;;2.00;1.80;;;;;;;16.61;100.00;97504.28;1709537;75;678883;-70
2023/06/19 02:16:30;;;;;;;2.90;2.10;;;;;;;16.61;100.00;97507.03;1701824;75;740121;-68
2023/06/19 02:19:00;;;;;;;2.50;2.20;;;;;;;16.58;100.00;97506.06;1709239;75;675957;-68
2023/06/19 02:21:30;;;;;;;2.15;1.95;;;;;;;16.48;100.00;97499.41;1701411;75;751909;-70
2023/06/19 02:24:04;;;;;;;2.50;2.30;;;;;;;16.45;100.00;97502.44;1710460;75;675011;-70
2023/06/19 02:26:34;;;;;;;3.00;2.70;;;;;;;16.44;100.00;97498.22;1701017;75;747478;-69
2023/06/19 02:29:04;;;;;;;2.65;2.15;;;;;;;16.40;100.00;97509.53;1709948;75;672687;-68
2023/06/19 02:31:34;;;;;;;2.90;2.60;;;;;;;16.31;100.00;97504.38;1701426;75;742787;-69
2023/06/19 02:34:04;;;;;;;2.55;2.25;;;;;;;16.28;100.00;97513.69;1710056;75;674168;-70
2023/06/19 02:36:35;;;;;;;2.10;1.90;;;;;;;16.26;100.00;97511.47;1700912;75;748186;-70
2023/06/19 02:39:08;;;;;;;2.30;2.10;;;;;;;16.22;100.00;97510.25;1710869;75;675726;-71
2023/06/19 02:41:39;;;;;;;3.40;2.95;;;;;;;16.10;100.00;97515.88;1701661;75;748545;-69
2023/06/19 02:44:09;;;;;;;3.30;2.70;;;;;;;16.05;100.00;97513.91;1710188;75;680927;-71
2023/06/19 02:46:39;;;;;;;2.90;2.40;;;;;;;16.06;100.00;97518.16;1701352;75;753942;-71
2023/06/19 02:49:09;;;;;;;2.45;2.25;;;;;;;16.07;100.00;97514.16;1709868;75;692827;-70
2023/06/19 02:51:39;;;;;;;2.60;2.10;;;;;;;16.03;100.00;97512.94;1701286;75;764500;-68
2023/06/19 02:54:12;;;;;;;2.45;2.15;;;;;;;15.95;100.00;97518.28;1709693;75;673413;-69
2023/06/19 02:56:42;;;;;;;2.95;2.35;;;;;;;15.92;100.00;97511.00;1701894;75;741148;-70
2023/06/19 02:59:13;;;;;;;2.15;1.95;;;;;;;15.94;100.00;97512.00;1710459;75;675919;-69
2023/06/19 03:01:43;;;;;;;2.50;2.30;;;;;;;15.88;100.00;97514.06;1701230;75;736469;-73
2023/06/19 03:04:13;;;;;;;2.45;2.25;;;;;;;15.85;100.00;97512.34;1710173;75;680191;-72
2023/06/19 03:06:43;;;;;;;4.30;3.75;;;;;;;15.71;100.00;97525.25;1701298;75;743631;-70
2023/06/19 03:09:16;;;;;;;4.35;3.85;;;;;;;15.74;100.00;97526.22;1710289;75;673384;-69
2023/06/19 03:11:46;;;;;;;5.15;3.60;;;;;;;15.77;100.00;97528.69;1701142;75;748239;-70
2023/06/19 03:14:16;;;;;;;3.50;3.10;;;;;;;15.72;100.00;97529.50;1709518;75;666482;-68
2023/06/19 03:16:46;;;;;;;3.00;2.70;;;;;;;15.72;100.00;97532.25;1700537;75;730747;-70
2023/06/19 03:19:17;;;;;;;3.20;2.90;;;;;;;15.62;100.00;97530.31;1709646;75;677962;-69
2023/06/19 03:21:47;;;;;;;2.50;2.30;;;;;;;15.68;100.00;97536.53;1701460;75;756062;-71
2023/06/19 03:24:20;;;;;;;2.70;2.50;;;;;;;15.61;100.00;97542.59;1709925;75;675083;-69
2023/06/19 03:26:50;;;;;;;3.00;2.70;;;;;;;15.64;100.00;97534.06;1701380;75;758326;-71
2023/06/19 03:29:20;;;;;;;2.85;2.55;;;;;;;15.62;100.00;97538.59;1711279;75;668941;-69
2023/06/19 03:31:50;;;;;;;2.60;2.40;;;;;;;15.63;100.00;97549.09;1701652;75;759816;-70
2023/06/19 03:34:20;;;;;;;2.65;2.30;;;;;;;15.63;100.00;97548.34;1710454;75;672484;-71
2023/06/19 03:36:51;;;;;;;2.85;2.30;;;;;;;15.63;100.00;97545.59;1701054;75;754553;-71
2023/06/19 03:39:23;;;;;;;3.65;3.35;;;;;;;15.63;100.00;97548.34;1709948;75;667984;-69
2023/06/19 03:41:54;;;;;;;3.10;2.80;;;;;;;15.63;100.00;97540.06;1700956;75;739323;-70
2023/06/19 03:44:24;;;;;;;2.60;2.25;;;;;;;15.70;100.00;97545.06;1710398;75;679264;-69
2023/06/19 03:46:54;;;;;;;2.70;2.30;;;;;;;15.68;100.00;97547.56;1701732;75;725868;-68
2023/06/19 03:49:24;;;;;;;2.60;2.20;;;;;;;15.69;100.00;97549.81;1708850;75;711095;-71
2023/06/19 03:51:55;;;;;;;3.45;3.15;;;;;;;15.67;100.00;97549.56;1701496;75;737466;-72
2023/06/19 03:54:28;;;;;;;5.60;5.00;;;;;;;15.68;100.00;97548.34;1709473;75;680320;-71
2023/06/19 03:56:59;;;;;;;6.15;5.55;;;;;;;15.72;100.00;97548.06;1701082;75;744050;-69
2023/06/19 03:59:29;;;;;;;5.30;4.80;;;;;;;15.69;100.00;97549.81;1710503;75;671958;-70
2023/06/19 04:01:59;;;;;;;5.90;5.35;;;;;;;15.73;100.00;97550.31;1700537;75;741968;-71
2023/06/19 04:04:29;;;;;;;5.80;5.30;;;;;;;15.80;100.00;97545.50;1710197;75;680239;-69
2023/06/19 04:06:59;;;;;;;6.40;4.90;;;;;;;15.85;100.00;97552.97;1700696;75;761079;-71
2023/06/19 04:09:32;;;;;;;6.00;5.40;;;;;;;15.84;100.00;97551.50;1709604;75;678571;-69
2023/06/19 04:12:03;;;;;;;4.60;4.10;;;;;;;15.90;100.00;97554.97;1701109;75;750734;-72
2023/06/19 04:14:33;;;;;;;5.50;4.50;;;;;;;15.90;100.00;97554.97;1709147;75;686661;-71
2023/06/19 04:17:03;;;;;;;4.95;4.45;;;;;;;15.95;100.00;97560.44;1701578;75;747708;-70
2023/06/19 04:19:33;;;;;;;5.15;4.65;;;;;;;15.96;100.00;97558.41;1710553;75;673307;-69
2023/06/19 04:22:04;;;;;;;5.70;4.95;;;;;;;15.97;100.00;97557.91;1701528;75;738041;-70
2023/06/19 04:24:38;;;;;;;5.05;4.40;;;;;;;16.06;100.00;97562.34;1710217;75;684981;-70
2023/06/19 04:27:10;;;;;;;4.05;3.65;;;;;;;16.16;100.00;97563.53;1701282;75;761811;-68
2023/06/19 04:29:40;;;;;;;4.00;3.60;;;;;;;16.22;100.00;97566.22;1710362;75;670439;-70
2023/06/19 04:32:13;;;;;;;3.90;3.40;;;;;;;16.33;100.00;97562.59;1702133;75;755220;-70
2023/06/19 04:34:46;;;;;;;6.60;5.85;;;;;;;16.36;100.00;97558.81;1711803;75;668248;-72
2023/06/19 04:37:18;;;;;;;9.30;8.30;;;;;;;16.48;100.00;97560.19;1702048;75;749823;-70
2023/06/19 04:39:51;;;;;;;11.70;10.50;;;;;;;16.67;100.00;97560.25;1711762;75;675049;-70
2023/06/19 04:42:22;;;;;;;13.75;10.35;;;;;;;16.88;100.00;97557.75;1701865;75;760302;-70
2023/06/19 04:44:52;;;;;;;12.70;9.60;;;;;;;17.04;100.00;97562.34;1710818;75;679296;-69
2023/06/19 04:47:26;;;;;;;10.55;9.45;;;;;;;17.20;100.00;97559.91;1701756;75;724869;-68
2023/06/19 04:49:56;;;;;;;11.30;10.00;;;;;;;17.24;100.00;97558.34;1711064;75;677353;-68
2023/06/19 04:52:26;;;;;;;10.60;9.45;;;;;;;17.39;100.00;97560.63;1701407;75;756554;-70
2023/06/19 04:54:59;;;;;;;11.90;10.70;;;;;;;17.37;100.00;97556.91;1710461;75;670738;-71
2023/06/19 04:57:29;;;;;;;10.35;9.25;;;;;;;17.49;100.00;97557.50;1700754;75;728773;-72
2023/06/19 04:59:59;;;;;;;10.90;9.75;;;;;;;17.55;100.00;97552.63;1710163;75;672456;-70
2023/06/19 05:02:29;;;;;;;11.40;10.05;;;;;;;17.70;100.00;97552.88;1701170;75;738461;-71
2023/06/19 05:05:02;;;;;;;12.10;9.55;;;;;;;17.89;100.00;97563.94;1709542;75;668318;-68
2023/06/19 05:07:34;;;;;;;10.25;9.15;;;;;;;17.90;100.00;97567.47;1700485;75;749028;-70
2023/06/19 05:10:07;;;;;;;11.25;9.20;;;;;;;17.92;100.00;97570.44;1709963;75;691138;-70
2023/06/19 05:12:39;;;;;;;9.30;8.40;;;;;;;18.08;100.00;97564.63;1701018;75;742989;-69
2023/06/19 05:15:11;;;;;;;7.55;6.50;;;;;;;18.19;100.00;97555.41;1710286;75;676492;-70
2023/06/19 05:17:41;;;;;;;6.25;5.60;;;;;;;18.28;100.00;97566.06;1701277;75;742821;-71
2023/06/19 05:20:14;;;;;;;9.55;8.55;;;;;;;18.29;100.00;97564.78;1710446;75;678662;-69
2023/06/19 05:22:44;;;;;;;12.35;8.55;;;;;;;18.39;100.00;97567.88;1701323;75;746899;-68
2023/06/19 05:25:17;;;;;;;11.55;8.80;;;;;;;18.40;100.00;97568.63;1709967;75;709665;-69
2023/06/19 05:27:49;;;;;;;12.35;8.90;;;;;;;18.44;100.00;97564.25;1700405;75;786735;-72
2023/06/19 05:30:19;;;;;;;11.30;8.90;;;;;;;18.50;100.00;97566.94;1710085;75;669823;-70
2023/06/19 05:32:50;;;;;;;10.00;8.90;;;;;;;18.59;100.00;97566.53;1700391;75;760720;-70
2023/06/19 05:35:20;;;;;;;12.80;9.95;;;;;;;18.66;100.00;97562.34;1710270;75;679783;-70
2023/06/19 05:37:51;;;;;;;9.75;8.75;;;;;;;18.78;99.56;97565.69;1700927;75;752948;-69
2023/06/19 05:40:24;;;;;;;9.30;7.90;;;;;;;18.94;99.15;97568.13;1710223;75;675048;-69
2023/06/19 05:42:55;;;;;;;12.25;8.75;;;;;;;18.86;99.19;97574.88;1700327;75;743426;-68
2023/06/19 05:45:25;;;;;;;11.20;8.80;;;;;;;19.03;100.00;97566.22;1710205;75;679148;-69
2023/06/19 05:47:56;;;;;;;11.80;9.35;;;;;;;19.08;97.95;97563.31;1700700;75;744438;-71
2023/06/19 05:50:26;;;;;;;8.70;7.80;;;;;;;19.23;97.74;97568.31;1710385;75;669310;-71
2023/06/19 05:52:56;;;;;;;8.30;6.50;;;;;;;19.41;96.87;97568.69;1700479;75;731432;-70
2023/06/19 05:55:29;;;;;;;8.20;7.35;;;;;;;19.40;95.72;97573.50;1709332;75;676499;-69
2023/06/19 05:58:00;;;;;;;11.95;9.10;;;;;;;19.42;95.80;97584.06;1701260;75;741160;-69
2023/06/19 06:00:31;;;;;;;14.70;9.20;;;;;;;19.59;91.09;97567.78;1708978;75;673390;-72
2023/06/19 06:03:02;;;;;;;8.45;7.20;;;;;;;19.76;91.03;97570.94;1698657;75;762836;-70
2023/06/19 06:05:32;;;;;;;11.90;9.10;;;;;;;19.77;88.47;97569.66;1709044;75;676180;-69
2023/06/19 06:08:04;;;;;;;9.40;7.50;;;;;;;20.08;88.44;97577.50;1701428;75;740824;-73
2023/06/19 06:10:37;;;;;;;9.10;7.70;;;;;;;20.11;83.65;97582.75;1709923;75;673723;-69
2023/06/19 06:13:07;;;;;;;12.05;9.20;;;;;;;20.28;81.95;97584.38;1700865;75;751163;-70
2023/06/19 06:15:38;;;;;;;13.50;9.30;;;;;;;20.36;81.21;97587.94;1709338;75;668698;-69
2023/06/19 06:18:09;;;;;;;12.40;8.35;;;;;;;20.54;80.26;97575.06;1700758;75;765249;-71
2023/06/19 06:20:39;;;;;;;13.05;8.90;;;;;;;20.76;80.28;97576.56;1708945;75;672498;-73
2023/06/19 06:23:09;;;;;;;10.45;7.80;;;;;;;20.87;79.59;97583.84;1700660;75;751938;-71
2023/06/19 06:25:42;;;;;;;7.30;6.50;;;;;;;21.04;76.44;97587.63;1708658;75;721252;-70
2023/06/19 06:28:13;;;;;;;7.95;6.75;;;;;;;21.10;77.75;97583.97;1700548;75;747196;-70
2023/06/19 06:30:43;;;;;;;7.95;6.25;;;;;;;21.19;78.53;97586.97;1709786;75;672068;-70
2023/06/19 06:33:13;;;;;;;7.70;6.30;;;;;;;21.23;79.44;97583.81;1701447;75;743784;-69
2023/06/19 06:35:43;;;;;;;9.30;6.35;;;;;;;21.26;79.45;97577.91;1709136;75;674279;-68
2023/06/19 06:38:14;;;;;;;7.05;6.20;;;;;;;21.27;75.45;97581.44;1700340;75;757677;-69
2023/06/19 06:40:46;;;;;;;8.25;6.05;;;;;;;21.35;76.42;97584.97;1709508;75;674854;-69
2023/06/19 06:43:16;;;;;;;9.40;6.75;;;;;;;21.40;75.55;97578.53;1701143;75;745747;-68
2023/06/19 06:45:47;;;;;;;7.70;6.60;;;;;;;21.56;75.89;97573.00;1709554;75;672636;-73
2023/06/19 06:48:17;;;;;;;6.30;5.50;;;;;;;21.70;75.63;97571.56;1698551;75;911535;-69
2023/06/19 06:50:47;;;;;;;9.40;6.50;;;;;;;21.69;73.71;97584.75;1710322;75;672117;-70
2023/06/19 06:53:18;;;;;;;11.00;7.15;;;;;;;21.81;72.71;97579.56;1701042;75;771803;-69
2023/06/19 06:55:50;;;;;;;12.80;8.40;;;;;;;21.91;72.26;97590.91;1710169;75;681961;-71
2023/06/19 06:58:21;;;;;;;8.40;6.75;;;;;;;22.06;72.26;97592.97;1701289;75;750327;-70
2023/06/19 07:00:51;;;;;;;7.10;6.40;;;;;;;22.22;73.32;97577.00;1709374;75;673815;-70
2023/06/19 07:03:21;;;;;;;8.70;6.75;;;;;;;22.24;74.00;97591.88;1700674;75;743355;-70
2023/06/19 07:05:52;;;;;;;7.90;6.35;;;;;;;22.40;75.79;97586.31;1709346;75;677506;-71
2023/06/19 07:08:22;;;;;;;10.10;7.95;;;;;;;22.30;75.98;97589.66;1701256;75;748920;-69
2023/06/19 07:10:58;;;;;;;8.50;7.00;;;;;;;22.51;76.63;97581.09;1709640;75;672807;-70
2023/06/19 07:13:29;;;;;;;8.50;6.95;;;;;;;22.69;77.19;97581.25;1701680;75;731348;-72
2023/06/19 07:16:04;;;;;;;8.10;6.70;;;;;;;22.69;74.61;97575.69;1710307;75;674257;-70
2023/06/19 07:18:35;;;;;;;7.05;5.60;;;;;;;22.95;76.64;97580.81;1701354;75;744400;-72
2023/06/19 07:21:06;;;;;;;8.05;5.95;;;;;;;22.90;77.65;97581.78;1710583;75;670559;-72
2023/06/19 07:23:36;;;;;;;6.05;5.45;;;;;;;23.21;74.65;97584.50;1701457;75;754379;-71
2023/06/19 07:26:09;;;;;;;7.60;6.60;;;;;;;23.09;69.69;97581.38;1710523;75;674993;-72
2023/06/19 07:28:40;;;;;;;7.20;6.05;;;;;;;23.30;70.25;97581.09;1701175;75;754851;-70
2023/06/19 07:31:10;;;;;;;8.00;6.60;;;;;;;23.18;69.46;97577.22;1709746;75;673155;-71
2023/06/19 07:33:40;;;;;;;7.15;6.25;;;;;;;23.22;68.54;97574.06;1701151;75;746442;-71
2023/06/19 07:36:13;;;;;;;8.80;7.10;;;;;;;23.34;69.63;97573.06;1710467;75;678054;-73
2023/06/19 07:38:43;;;;;;;9.40;7.80;;;;;;;23.44;69.57;97572.47;1701232;75;759414;-70
2023/06/19 07:41:16;;;;;;;9.25;6.95;;;;;;;23.59;70.90;97572.38;1710074;75;687681;-71
2023/06/19 07:43:47;;;;;;;10.15;6.95;;;;;;;23.68;69.96;97580.16;1701038;75;737834;-73
2023/06/19 07:46:18;;;;;;;8.80;6.60;;;;;;;23.63;69.79;97572.72;1709692;75;670092;-72
2023/06/19 07:48:48;;;;;;;9.40;6.65;;;;;;;23.90;71.40;97578.53;1701606;75;747969;-72
2023/06/19 07:51:18;;;;;;;7.90;6.50;;;;;;;23.75;70.30;97579.38;1710063;75;672977;-70
2023/06/19 07:53:49;;;;;;;7.75;5.55;;;;;;;24.01;69.26;97580.91;1701113;75;767097;-71
2023/06/19 07:56:21;;;;;;;8.50;6.00;;;;;;;24.22;68.30;97579.78;1709801;75;699830;-73
2023/06/19 07:58:52;;;;;;;12.00;7.60;;;;;;;24.07;69.01;97572.28;1701458;75;751082;-71
2023/06/19 08:01:22;;;;;;;8.95;7.45;;;;;;;24.35;68.70;97575.97;1705193;75;913461;-72
2023/06/19 08:03:52;;;;;;;8.05;7.05;;;;;;;24.49;67.15;97576.44;1701303;75;747878;-73
2023/06/19 08:06:22;;;;;;;8.85;5.95;;;;;;;24.48;67.26;97574.94;1709985;75;679259;-73
2023/06/19 08:08:53;;;;;;;6.20;5.60;;;;;;;24.52;65.13;97566.91;1702369;75;737197;-74
2023/06/19 08:11:25;;;;;;;8.40;6.90;;;;;;;24.61;64.61;97569.06;1710551;75;671082;-70
2023/06/19 08:13:56;;;;;;;8.10;6.70;;;;;;;24.87;65.69;97568.41;1701880;75;754028;-72
2023/06/19 08:16:28;;;;;;;6.35;5.65;;;;;;;24.93;63.72;97575.81;1710264;75;671176;-72
2023/06/19 08:18:58;;;;;;;6.40;5.75;;;;;;;24.99;63.11;97573.47;1701270;75;761198;-71
2023/06/19 08:21:28;;;;;;;6.95;6.25;;;;;;;25.09;63.34;97569.47;1710088;75;685797;-72
2023/06/19 08:23:59;;;;;;;6.70;6.00;;;;;;;25.11;62.58;97568.13;1701457;75;754903;-71
2023/06/19 08:26:31;;;;;;;6.80;5.60;;;;;;;25.29;61.71;97570.34;1709894;75;679981;-72
2023/06/19 08:29:02;;;;;;;6.55;5.35;;;;;;;25.25;62.61;97563.69;1700530;75;748852;-71
2023/06/19 08:31:33;;;;;;;6.30;5.70;;;;;;;25.55;62.34;97564.63;1710325;75;676962;-71
2023/06/19 08:34:06;;;;;;;6.30;5.40;;;;;;;25.51;59.96;97557.34;1701692;75;736704;-71
2023/06/19 08:36:37;;;;;;;10.00;6.70;;;;;;;25.55;61.10;97561.81;1709519;75;682702;-70
2023/06/19 08:39:08;;;;;;;6.30;5.70;;;;;;;25.76;61.89;97558.50;1701110;75;753525;-72
2023/06/19 08:41:41;;;;;;;6.20;5.60;;;;;;;25.73;60.43;97563.22;1709834;75;712211;-70
2023/06/19 08:44:12;;;;;;;6.55;5.80;;;;;;;25.92;59.12;97571.03;1701261;75;755056;-72
2023/06/19 08:46:43;;;;;;;7.00;5.40;;;;;;;26.09;58.64;97565.31;1710208;75;688733;-72
2023/06/19 08:49:13;;;;;;;6.20;5.40;;;;;;;26.14;57.40;97566.38;1700817;75;749769;-72
2023/06/19 08:51:43;;;;;;;6.75;6.10;;;;;;;26.03;57.20;97566.94;1709811;75;677757;-71
2023/06/19 08:54:15;;;;;;;7.90;6.40;;;;;;;26.14;58.04;97569.19;1700840;75;756762;-73
2023/06/19 08:56:50;;;;;;;6.50;5.80;;;;;;;26.23;57.28;97568.47;1710312;75;677395;-72
2023/06/19 08:59:21;;;;;;;6.80;6.10;;;;;;;26.18;56.94;97572.28;1700757;75;746972;-71
2023/06/19 09:01:54;;;;;;;7.80;5.40;;;;;;;26.56;56.90;97568.13;1710178;75;674898;-71
2023/06/19 09:04:26;;;;;;;8.85;6.80;;;;;;;25.97;56.19;97563.66;1700784;75;754895;-72
2023/06/19 09:06:59;;;;;;;7.90;6.60;;;;;;;25.88;56.11;97563.03;1709624;75;672861;-70
2023/06/19 09:09:30;;;;;;;8.40;6.50;;;;;;;26.69;55.50;97559.28;1700924;75;734324;-72
2023/06/19 09:12:10;;;;;;;7.10;5.40;;;;;;;26.69;56.34;97558.53;1709394;75;689930;-72
2023/06/19 09:14:42;;;;;;;8.00;6.25;;;;;;;26.80;55.95;97562.84;1700695;75;748163;-70
2023/06/19 09:17:16;;;;;;;6.50;5.80;;;;;;;26.77;56.33;97562.69;1710508;75;677421;-73
2023/06/19 09:19:52;;;;;;;6.90;5.10;;;;;;;26.81;54.62;97556.63;1701431;75;763124;-71
2023/06/19 09:22:25;;;;;;;9.40;6.10;;;;;;;27.12;55.48;97548.34;1701928;75;685103;-74
2023/06/19 09:24:55;;;;;;;6.60;5.95;;;;;;;26.98;55.51;97550.84;1710545;75;678411;-72
2023/06/19 09:27:28;;;;;;;6.80;5.25;;;;;;;27.43;54.49;97549.81;1702781;75;682775;-75
2023/06/19 09:29:58;;;;;;;6.30;5.70;;;;;;;27.23;53.07;97544.22;1710591;75;679523;-72
2023/06/19 09:32:30;;;;;;;7.60;6.10;;;;;;;27.47;53.22;97548.00;1702934;75;670266;-73
2023/06/19 09:35:02;;;;;;;6.30;5.60;;;;;;;27.73;53.50;97543.50;1711032;75;671351;-73
2023/06/19 09:37:33;;;;;;;6.55;5.85;;;;;;;27.86;52.21;97545.09;1702415;75;676380;-75
2023/06/19 09:40:10;;;;;;;6.60;5.30;;;;;;;27.86;52.79;97544.38;1710233;75;676078;-72
2023/06/19 09:42:45;;;;;;;6.10;5.50;;;;;;;27.57;52.18;97553.63;1702105;75;670274;-73
2023/06/19 09:45:18;;;;;;;6.80;5.45;;;;;;;27.94;52.11;97539.28;1709659;75;672407;-75
2023/06/19 09:47:51;;;;;;;6.30;5.45;;;;;;;27.91;50.24;97543.31;1700533;75;757766;-73
2023/06/19 09:50:27;;;;;;;6.10;5.50;;;;;;;28.13;50.66;97546.91;1709507;75;696177;-74
2023/06/19 09:52:58;;;;;;;7.75;5.10;;;;;;;28.09;49.11;97532.53;1700767;75;757014;-73
2023/06/19 09:55:31;;;;;;;5.85;5.25;;;;;;;28.17;49.01;97533.84;1709197;75;689654;-72
2023/06/19 09:58:07;;;;;;;6.80;5.90;;;;;;;28.19;49.91;97542.44;1700972;75;762901;-73
2023/06/19 10:00:38;;;;;;;6.45;5.40;;;;;;;28.13;48.05;97542.00;1701487;75;679425;-71
2023/06/19 10:03:16;;;;;;;6.20;5.60;;;;;;;28.28;47.50;97542.97;1710215;75;676269;-73
2023/06/19 10:05:46;;;;;;;7.50;5.80;;;;;;;28.39;50.76;97536.69;1702124;75;684976;-72
2023/06/19 10:08:16;;;;;;;5.90;5.30;;;;;;;28.38;50.14;97541.59;1710399;75;677031;-73
2023/06/19 10:10:51;;;;;;;5.70;5.20;;;;;;;28.80;50.70;97540.13;1702457;75;673607;-73
2023/06/19 10:13:24;;;;;;;5.50;5.00;;;;;;;28.68;48.50;97542.88;1710159;75;682535;-72
2023/06/19 10:15:54;;;;;;;5.40;4.90;;;;;;;28.68;48.75;97540.06;1701814;75;676850;-72
2023/06/19 10:18:26;;;;;;;7.60;5.20;;;;;;;28.81;47.49;97541.56;1709436;75;673039;-72
2023/06/19 10:20:58;;;;;;;8.55;4.70;;;;;;;29.24;47.07;97537.97;1702002;75;684293;-72
2023/06/19 10:23:29;;;;;;;5.65;5.05;;;;;;;29.33;46.73;97531.50;1709702;75;682825;-75
2023/06/19 10:26:03;;;;;;;5.25;4.75;;;;;;;29.03;45.51;97538.72;1701402;75;683606;-74
2023/06/19 10:28:37;;;;;;;5.40;4.70;;;;;;;29.04;45.60;97534.56;1709348;75;693111;-74
2023/06/19 10:31:09;;;;;;;7.30;5.20;;;;;;;29.11;46.71;97535.75;1700784;75;746951;-71
2023/06/19 10:33:41;;;;;;;5.80;5.20;;;;;;;28.98;47.91;97534.91;1709584;75;678540;-72
2023/06/19 10:36:19;;;;;;;5.70;5.10;;;;;;;29.26;46.34;97524.00;1701431;75;727987;-71
2023/06/19 10:38:49;;;;;;;6.00;5.20;;;;;;;29.19;46.34;97527.78;1702194;75;675355;-71
2023/06/19 10:41:21;;;;;;;5.95;5.05;;;;;;;29.22;47.20;97523.75;1709611;75;672669;-71
2023/06/19 10:44:01;;;;;;;5.20;4.70;;;;;;;29.70;47.13;97522.50;1701644;75;727186;-72
2023/06/19 10:46:35;;;;;;;6.10;5.15;;;;;;;29.88;47.45;97525.72;1710054;75;675157;-72
2023/06/19 10:49:07;;;;;;;5.90;5.30;;;;;;;29.92;46.81;97529.53;1701410;75;679131;-75
2023/06/19 10:51:40;;;;;;;6.20;5.60;;;;;;;29.93;46.18;97524.59;1709498;75;669813;-72
2023/06/19 10:54:10;;;;;;;5.40;4.80;;;;;;;30.10;45.88;97521.41;1702323;75;673428;-73
2023/06/19 10:56:40;;;;;;;5.75;5.15;;;;;;;30.32;46.53;97515.63;1710560;75;676040;-75
2023/06/19 10:59:14;;;;;;;6.45;4.90;;;;;;;30.50;46.73;97513.88;1702187;75;703128;-72
2023/06/19 11:01:48;;;;;;;5.55;4.95;;;;;;;30.54;46.17;97514.09;1709336;75;696586;-74
2023/06/19 11:04:19;;;;;;;6.40;5.30;;;;;;;30.49;47.02;97517.31;1701061;75;754666;-72
2023/06/19 11:06:50;;;;;;;5.45;4.95;;;;;;;30.75;46.91;97512.44;1710372;75;674178;-73
2023/06/19 11:09:21;;;;;;;5.75;5.05;;;;;;;30.80;47.13;97519.78;1700786;75;759778;-73
2023/06/19 11:11:52;;;;;;;7.70;6.05;;;;;;;30.54;47.43;97516.91;1709929;75;676921;-73
2023/06/19 11:14:25;;;;;;;6.35;5.05;;;;;;;30.54;46.86;97511.28;1701504;75;751598;-74
2023/06/19 11:16:55;;;;;;;6.75;6.05;;;;;;;30.26;47.16;97507.56;1710077;75;672825;-73
2023/06/19 11:19:33;;;;;;;6.45;4.90;;;;;;;30.79;48.25;97518.34;1701595;75;747524;-72
2023/06/19 11:22:04;;;;;;;5.85;5.35;;;;;;;30.56;46.31;97514.22;1702327;75;679449;-72
2023/06/19 11:24:34;;;;;;;5.50;5.00;;;;;;;30.92;45.76;97511.31;1710555;75;672053;-70
2023/06/19 11:27:05;;;;;;;6.20;5.20;;;;;;;31.21;44.92;97502.28;1702351;75;687759;-76
2023/06/19 11:29:39;;;;;;;5.90;5.35;;;;;;;31.12;45.11;97497.56;1710239;75;680416;-73
2023/06/19 11:32:12;;;;;;;5.50;5.00;;;;;;;31.01;44.21;97506.84;1701697;75;681691;-71
2023/06/19 11:34:44;;;;;;;6.10;5.50;;;;;;;31.44;45.70;97509.19;1710378;75;673680;-72
2023/06/19 11:37:18;;;;;;;5.85;5.25;;;;;;;31.18;42.90;97506.38;1701951;75;671398;-73
2023/06/19 11:39:49;;;;;;;8.20;5.30;;;;;;;30.84;43.62;97508.03;1710015;75;697481;-72